Time;durP1;ratioP1;P1;durP2;ratioP2;P2;SDS_P1;SDS_P2;PMS_P1;PMS_P2;Temp;Humidity;BMP_temperature;BMP_pressure;BME280_temperature;BME280_humidity;BME280_pressure;Samples;Min_cycle;Max_cycle;Signal;HPM_P1;HPM_P2
2022/05/14 00:00:34;;;;;;;5.20;1.70;;;12.70;1.40;;;13.94;100.00;95818.73;646939;216;31553;-73
2022/05/14 00:03:19;;;;;;;1.20;1.10;;;12.80;1.40;;;13.97;100.00;95816.66;646819;216;31521;-73
2022/05/14 00:06:01;;;;;;;1.58;1.48;;;12.80;1.40;;;14.00;100.00;95816.25;646953;215;31770;-73
2022/05/14 00:08:42;;;;;;;2.10;1.83;;;12.80;1.40;;;13.95;100.00;95810.84;642420;216;31760;-73
2022/05/14 00:14:11;;;;;;;3.62;2.10;;;12.70;1.40;;;13.92;100.00;95806.00;647096;216;31633;-73
2022/05/14 00:16:56;;;;;;;2.22;1.80;;;12.60;1.40;;;13.85;100.00;95808.28;646660;216;31517;-72
2022/05/14 00:19:38;;;;;;;1.20;1.10;;;12.50;1.40;;;13.82;100.00;95815.06;646967;216;31508;-73
2022/05/14 00:22:19;;;;;;;1.50;1.33;;;12.40;1.40;;;13.77;100.00;95814.33;646265;216;31578;-72
2022/05/14 00:25:04;;;;;;;1.33;1.23;;;12.50;1.40;;;13.70;100.00;95812.95;646405;216;31641;-73
2022/05/14 00:27:46;;;;;;;1.23;1.00;;;12.40;1.40;;;13.57;100.00;95809.06;646758;216;31625;-73
2022/05/14 00:30:28;;;;;;;1.65;1.30;;;12.20;1.40;;;13.44;100.00;95803.75;646153;216;31861;-74
2022/05/14 00:35:51;;;;;;;2.80;1.80;;;11.90;1.40;;;13.25;100.00;95801.56;646820;216;31654;-73
2022/05/14 00:38:33;;;;;;;2.78;1.45;;;11.80;1.40;;;13.12;100.00;95807.95;645461;216;42134;-73
2022/05/14 00:41:14;;;;;;;1.15;1.08;;;11.80;1.40;;;13.01;100.00;95802.97;647744;216;31497;-73
2022/05/14 00:43:57;;;;;;;2.20;1.83;;;11.60;1.40;;;12.92;100.00;95803.97;646063;216;31537;-73
2022/05/14 00:46:40;;;;;;;3.85;1.42;;;11.60;1.40;;;12.80;100.00;95797.92;646927;216;31525;-72
2022/05/14 00:49:21;;;;;;;1.33;1.13;;;11.40;1.40;;;12.71;100.00;95798.25;647105;216;31704;-73
2022/05/14 00:52:02;;;;;;;1.40;1.30;;;11.30;1.40;;;12.62;100.00;95799.09;646197;212;31528;-73
2022/05/14 00:54:46;;;;;;;3.10;2.00;;;11.30;1.40;;;12.61;100.00;95805.16;647112;212;31522;-73
2022/05/14 00:57:32;;;;;;;1.87;1.77;;;11.20;1.40;;;12.65;100.00;95800.47;645929;216;31565;-73
2022/05/14 01:00:15;;;;;;;2.50;1.58;;;11.30;1.40;;;12.65;100.00;95794.97;645841;216;42729;-72
2022/05/14 01:02:57;;;;;;;2.67;1.20;;;11.30;1.40;;;12.65;100.00;95792.63;646415;216;42822;-74
2022/05/14 01:05:39;;;;;;;2.20;1.85;;;11.30;1.40;;;12.56;100.00;95786.77;646385;216;31560;-73
2022/05/14 01:08:20;;;;;;;1.80;1.30;;;11.30;1.40;;;12.52;100.00;95785.46;646794;216;42167;-73
2022/05/14 01:11:09;;;;;;;1.75;1.65;;;11.20;1.40;;;12.48;100.00;95793.38;648102;212;42306;-77
2022/05/14 01:13:57;;;;;;;1.25;1.05;;;11.20;1.40;;;12.35;100.00;95788.92;646457;216;41086;-75
2022/05/14 01:16:38;;;;;;;1.27;1.17;;;11.20;1.40;;;12.37;100.00;95784.48;645776;216;39814;-73
2022/05/14 01:19:23;;;;;;;1.80;1.00;;;11.30;1.40;;;12.35;100.00;95786.17;646233;216;32112;-73
2022/05/14 01:22:22;;;;;;;1.60;1.05;;;11.30;1.40;;;12.27;100.00;95779.44;647909;216;31765;-76
2022/05/14 01:28:24;;;;;;;2.03;1.83;;;10.90;1.40;;;12.10;100.00;95776.27;646869;216;33508;-72
2022/05/14 01:35:56;;;;;;;1.95;1.77;;;10.80;1.40;;;11.66;100.00;95785.19;647218;216;31572;-73
2022/05/14 01:38:38;;;;;;;1.30;0.80;;;10.50;1.40;;;11.62;100.00;95783.98;646581;216;31619;-73
2022/05/14 01:41:20;;;;;;;1.30;1.20;;;10.40;1.40;;;11.76;100.00;95789.73;646771;212;31489;-73
2022/05/14 01:44:02;;;;;;;1.90;1.30;;;10.70;1.40;;;11.87;100.00;95783.25;642851;215;42294;-73
2022/05/14 01:46:43;;;;;;;1.80;1.30;;;10.70;1.40;;;11.95;100.00;95780.05;645060;216;34817;-73
2022/05/14 01:49:25;;;;;;;1.30;0.98;;;10.80;1.40;;;12.07;100.00;95777.40;647545;216;31595;-73
2022/05/14 01:52:08;;;;;;;1.10;0.90;;;10.90;1.40;;;12.09;100.00;95778.25;647299;216;31533;-74
2022/05/14 01:54:49;;;;;;;1.30;1.20;;;10.90;1.40;;;12.11;100.00;95783.80;647805;216;34494;-74
2022/05/14 01:57:30;;;;;;;2.10;1.00;;;10.80;1.40;;;12.18;100.00;95784.95;646310;216;31559;-74
2022/05/14 02:00:14;;;;;;;1.65;1.17;;;10.90;1.40;;;12.25;100.00;95783.58;648048;216;37223;-73
2022/05/14 02:03:15;;;;;;;2.17;1.52;;;11.00;1.40;;;12.31;100.00;95776.03;647768;216;31573;-73
2022/05/14 02:05:59;;;;;;;3.22;1.75;;;11.10;1.40;;;12.27;100.00;95769.31;646278;216;32920;-73
2022/05/14 02:08:41;;;;;;;6.40;1.08;;;11.10;1.40;;;12.19;100.00;95771.23;641926;212;32313;-73
2022/05/14 02:11:23;;;;;;;1.03;0.93;;;10.90;1.40;;;12.11;100.00;95780.33;647337;216;31700;-74
2022/05/14 02:14:05;;;;;;;1.25;1.10;;;10.80;1.40;;;12.07;100.00;95779.80;646745;212;33375;-73
2022/05/14 02:16:46;;;;;;;1.62;1.52;;;10.80;1.40;;;12.23;100.00;95776.36;646740;212;31535;-73
2022/05/14 02:19:28;;;;;;;1.30;1.20;;;11.00;1.40;;;12.26;100.00;95770.73;647742;216;35131;-74
2022/05/14 02:22:10;;;;;;;1.40;1.20;;;11.00;1.40;;;12.16;100.00;95766.30;646533;216;42317;-74
2022/05/14 02:24:51;;;;;;;1.60;1.00;;;10.90;1.40;;;12.07;100.00;95761.70;647284;216;35627;-73
2022/05/14 02:27:33;;;;;;;2.05;1.17;;;10.70;1.40;;;12.00;100.00;95764.02;647037;216;31617;-73
2022/05/14 02:30:18;;;;;;;1.30;1.00;;;10.60;1.40;;;12.04;100.00;95762.35;647202;216;32396;-73
2022/05/14 02:32:59;;;;;;;1.37;1.27;;;10.80;1.40;;;12.18;100.00;95755.05;646312;212;31583;-73
2022/05/14 02:38:28;;;;;;;1.92;1.40;;;11.00;1.40;;;12.12;100.00;95755.52;646348;216;32543;-73
2022/05/14 02:41:07;;;;;;;1.12;0.95;;;10.80;1.40;;;11.92;100.00;95756.37;646592;216;31580;-73
2022/05/14 02:43:53;;;;;;;1.08;1.00;;;10.60;1.40;;;11.92;100.00;95758.31;646780;216;32762;-74
2022/05/14 02:46:33;;;;;;;1.83;0.90;;;10.50;1.40;;;11.70;100.00;95764.69;646698;216;31494;-75
2022/05/14 02:49:21;;;;;;;1.20;1.10;;;10.40;1.40;;;11.69;100.00;95761.56;647259;212;31558;-75
2022/05/14 02:52:09;;;;;;;0.93;0.80;;;10.50;1.40;;;11.73;100.00;95758.36;619920;226;31924;-73
2022/05/14 02:57:33;;;;;;;8.02;1.65;;;10.40;1.40;;;11.62;100.00;95761.87;646180;213;33496;-72
2022/05/14 03:00:16;;;;;;;1.50;1.40;;;10.30;1.40;;;11.62;100.00;95757.42;646836;216;32110;-74
2022/05/14 03:02:57;;;;;;;1.67;1.50;;;10.30;1.40;;;11.57;100.00;95760.89;646514;216;31669;-73
2022/05/14 03:05:39;;;;;;;1.58;1.37;;;10.20;1.40;;;11.47;100.00;95766.83;645312;216;37670;-74
2022/05/14 03:08:20;;;;;;;1.60;0.93;;;10.20;1.40;;;11.53;100.00;95769.92;644423;216;31780;-72
2022/05/14 03:11:02;;;;;;;1.70;0.90;;;10.40;1.40;;;11.68;100.00;95775.01;648188;216;34867;-74
2022/05/14 03:13:44;;;;;;;1.83;0.90;;;10.60;1.40;;;11.80;100.00;95772.47;646438;216;31574;-73
2022/05/14 03:16:28;;;;;;;1.50;1.40;;;10.70;1.40;;;11.93;100.00;95773.91;646708;216;32481;-74
2022/05/14 03:19:10;;;;;;;1.42;1.33;;;10.80;1.40;;;12.02;100.00;95783.97;645262;212;31604;-74
2022/05/14 03:21:52;;;;;;;2.00;1.50;;;10.90;1.40;;;12.14;100.00;95784.17;647885;216;32246;-73
2022/05/14 03:24:36;;;;;;;1.10;1.00;;;11.10;1.40;;;12.24;100.00;95776.23;647598;216;31520;-73
2022/05/14 03:27:15;;;;;;;2.00;1.20;;;11.00;1.40;;;12.12;100.00;95767.41;619789;226;32716;-73
2022/05/14 03:29:57;;;;;;;1.40;1.30;;;10.90;1.40;;;12.09;100.00;95763.79;646693;215;31610;-73
2022/05/14 03:32:39;;;;;;;2.35;2.15;;;10.90;1.40;;;12.06;100.00;95764.64;646860;216;32643;-73
2022/05/14 03:35:57;;;;;;;1.23;1.12;;;10.70;1.40;;;12.04;100.00;95769.97;618965;226;32067;-76
2022/05/14 03:38:41;;;;;;;3.47;1.90;;;10.70;1.40;;;12.03;100.00;95775.80;645882;216;31524;-73
2022/05/14 03:41:22;;;;;;;1.65;1.23;;;10.70;1.40;;;11.91;100.00;95781.13;648424;212;31543;-73
2022/05/14 03:46:38;;;;;;;0.90;0.70;;;10.70;1.40;;;12.01;100.00;95789.72;646368;212;31633;-74
2022/05/14 03:49:23;;;;;;;1.60;1.30;;;10.60;1.40;;;11.95;100.00;95794.83;646380;216;34422;-73
2022/05/14 03:52:05;;;;;;;2.10;1.00;;;10.60;1.40;;;11.88;100.00;95791.41;645758;216;31827;-73
2022/05/14 03:54:49;;;;;;;2.53;1.48;;;10.60;1.40;;;11.94;100.00;95791.00;646867;216;31609;-73
2022/05/14 03:57:31;;;;;;;1.90;1.70;;;10.60;1.40;;;11.83;100.00;95785.55;647563;216;32115;-73
2022/05/14 04:00:13;;;;;;;1.42;1.33;;;10.60;1.40;;;12.03;100.00;95785.47;646057;216;31566;-73
2022/05/14 04:02:55;;;;;;;1.20;1.08;;;10.70;1.40;;;12.09;100.00;95789.72;631789;222;32536;-73
2022/05/14 04:05:36;;;;;;;1.62;1.52;;;10.80;1.40;;;12.33;100.00;95784.14;646618;216;31464;-73
2022/05/14 04:08:18;;;;;;;1.90;1.42;;;10.90;1.40;;;12.50;100.00;95792.30;643744;216;32571;-73
2022/05/14 04:11:00;;;;;;;1.70;1.52;;;11.10;1.40;;;12.62;100.00;95793.92;646836;212;31592;-73
2022/05/14 04:13:42;;;;;;;1.73;1.10;;;11.20;1.40;;;12.59;100.00;95798.23;619370;226;33319;-73
2022/05/14 04:16:26;;;;;;;2.40;1.40;;;11.10;1.40;;;12.46;100.00;95803.55;647086;216;31557;-73
2022/05/14 04:19:08;;;;;;;3.28;1.45;;;11.10;1.40;;;12.39;100.00;95804.22;646276;216;36916;-73
2022/05/14 04:21:53;;;;;;;1.60;0.90;;;11.10;1.40;;;12.35;100.00;95807.20;646024;212;32483;-74
2022/05/14 04:24:35;;;;;;;2.22;1.70;;;11.10;1.40;;;12.42;100.00;95808.88;646603;216;31493;-73
2022/05/14 04:27:16;;;;;;;2.28;1.40;;;11.20;1.40;;;12.62;100.00;95799.95;646365;212;38784;-73
2022/05/14 04:29:58;;;;;;;4.70;1.48;;;11.40;1.40;;;12.80;100.00;95797.81;646454;216;31594;-73
2022/05/14 04:32:40;;;;;;;2.90;1.00;;;11.50;1.40;;;13.11;100.00;95797.62;647432;216;42158;-73
2022/05/14 04:35:51;;;;;;;0.95;0.85;;;11.80;1.40;;;13.41;100.00;95797.90;647602;216;31654;-74
2022/05/14 04:38:36;;;;;;;2.28;1.37;;;11.90;1.40;;;13.48;100.00;95800.53;645598;212;31646;-73
2022/05/14 04:41:18;;;;;;;2.25;1.65;;;12.00;1.40;;;13.71;100.00;95801.21;646684;216;42149;-73
2022/05/14 04:43:59;;;;;;;2.40;1.50;;;12.10;1.40;;;13.71;100.00;95803.50;647740;216;31767;-73
2022/05/14 04:46:44;;;;;;;3.17;2.47;;;12.20;1.40;;;13.88;100.00;95809.66;645215;212;42142;-73
2022/05/14 04:49:26;;;;;;;2.80;1.73;;;12.30;1.40;;;14.04;100.00;95818.14;646198;216;42350;-74
2022/05/14 04:52:07;;;;;;;5.20;2.50;;;12.50;1.40;;;13.82;100.00;95818.31;647584;216;31535;-73
2022/05/14 04:54:49;;;;;;;3.87;2.25;;;12.40;1.40;;;14.12;100.00;95812.64;645461;213;31619;-74
2022/05/14 04:57:31;;;;;;;2.78;1.98;;;12.50;1.40;;;14.10;100.00;95818.20;645879;212;31625;-73
2022/05/14 05:00:15;;;;;;;1.23;1.10;;;12.60;1.40;;;14.13;100.00;95815.33;645392;216;31821;-73
2022/05/14 05:05:44;;;;;;;1.92;1.83;;;12.70;1.40;;;14.27;100.00;95816.41;646203;216;32467;-73
2022/05/14 05:08:26;;;;;;;4.07;1.50;;;12.70;1.40;;;14.09;100.00;95815.00;646652;212;31734;-73
2022/05/14 05:11:08;;;;;;;3.60;1.75;;;12.70;1.40;;;14.20;100.00;95817.70;646078;216;31586;-73
2022/05/14 05:13:50;;;;;;;2.30;1.73;;;12.60;1.40;;;14.24;100.00;95813.77;646426;216;31554;-73
2022/05/14 05:16:38;;;;;;;1.60;1.50;;;12.70;1.40;;;14.09;100.00;95817.52;647551;212;31613;-76
2022/05/14 05:19:25;;;;;;;2.87;2.15;;;12.70;1.40;;;14.16;100.00;95817.11;641020;216;31682;-74
2022/05/14 05:22:07;;;;;;;1.60;1.33;;;12.70;1.40;;;14.03;100.00;95823.08;645691;216;31904;-73
2022/05/14 05:24:54;;;;;;;2.92;2.33;;;12.60;1.40;;;13.87;100.00;95822.11;647032;215;42751;-73
2022/05/14 05:27:35;;;;;;;2.22;1.40;;;12.60;1.40;;;13.95;100.00;95823.48;647489;216;31866;-73
2022/05/14 05:30:17;;;;;;;2.35;2.03;;;12.70;1.40;;;14.06;100.00;95828.95;646620;216;31619;-73
2022/05/14 05:33:02;;;;;;;2.50;2.30;;;12.80;1.40;;;14.23;100.00;95829.77;646353;212;31522;-73
2022/05/14 05:35:51;;;;;;;1.80;1.10;;;12.80;1.40;;;14.41;100.00;95828.16;646670;216;31589;-74
2022/05/14 05:38:35;;;;;;;2.40;2.20;;;13.00;1.40;;;14.67;100.00;95828.79;646425;216;42232;-72
2022/05/14 05:41:19;;;;;;;2.00;1.80;;;13.20;1.40;;;14.80;100.00;95834.30;631237;221;42416;-72
2022/05/14 05:44:01;;;;;;;6.12;2.20;;;13.30;1.40;;;14.97;100.00;95837.31;646536;212;31599;-74
2022/05/14 05:46:43;;;;;;;2.87;2.58;;;13.40;1.40;;;15.14;100.00;95838.69;619796;222;31911;-72
2022/05/14 05:49:24;;;;;;;2.10;1.90;;;13.40;1.40;;;14.86;100.00;95844.75;646809;212;31510;-73
2022/05/14 05:52:12;;;;;;;1.75;1.65;;;13.20;1.40;;;14.68;100.00;95844.41;646072;216;31538;-73
2022/05/14 05:57:47;;;;;;;2.17;1.98;;;13.30;1.40;;;15.15;100.00;95839.24;647242;216;31590;-73
2022/05/14 06:00:29;;;;;;;3.17;2.40;;;13.50;1.40;;;15.30;100.00;95843.98;646942;216;31543;-72
2022/05/14 06:03:13;;;;;;;2.65;2.45;;;13.70;1.40;;;15.53;100.00;95842.38;647364;216;32244;-75
2022/05/14 06:05:55;;;;;;;3.80;2.20;;;13.90;1.40;;;15.35;100.00;95844.83;646872;216;31630;-72
2022/05/14 06:08:37;;;;;;;2.62;2.30;;;13.70;1.40;;;15.30;100.00;95846.65;624061;222;31958;-73
2022/05/14 06:11:19;;;;;;;2.72;2.53;;;13.60;1.40;;;15.21;100.00;95845.45;618462;222;31839;-73
2022/05/14 06:14:01;;;;;;;3.00;2.20;;;13.60;1.40;;;15.50;100.00;95841.69;643379;215;31655;-74
2022/05/14 06:16:42;;;;;;;2.05;1.85;;;13.80;1.40;;;15.74;100.00;95845.69;648009;212;31661;-72
2022/05/14 06:19:27;;;;;;;2.43;2.23;;;14.10;1.40;;;16.02;100.00;95856.61;647454;216;42493;-75
2022/05/14 06:22:09;;;;;;;3.62;2.55;;;14.40;1.40;;;15.89;100.00;95857.42;646479;216;31544;-72
2022/05/14 06:24:55;;;;;;;2.37;2.17;;;14.40;1.40;;;15.86;100.00;95860.45;648357;216;31581;-74
2022/05/14 06:27:37;;;;;;;5.10;2.42;;;14.20;1.40;;;16.09;100.00;95860.63;646800;212;31688;-74
2022/05/14 06:30:19;;;;;;;2.83;2.28;;;14.40;1.40;;;16.27;100.00;95864.20;647685;212;31631;-72
2022/05/14 06:35:52;;;;;;;3.00;2.80;;;14.60;1.40;;;16.80;100.00;95859.46;647676;216;31569;-75
2022/05/14 06:38:36;;;;;;;2.47;2.27;;;15.00;1.40;;;16.77;100.00;95861.52;645712;216;42329;-73
2022/05/14 06:41:23;;;;;;;4.30;2.83;;;15.10;1.40;;;16.85;100.00;95865.16;645382;216;32375;-74
2022/05/14 06:44:05;;;;;;;2.50;2.30;;;15.10;1.40;;;16.46;100.00;95869.09;647607;212;31966;-73
2022/05/14 06:46:47;;;;;;;3.60;2.80;;;15.00;1.40;;;16.57;100.00;95867.03;647381;212;31544;-72
2022/05/14 06:49:34;;;;;;;2.40;2.20;;;15.00;1.40;;;16.41;100.00;95862.28;646761;216;31661;-73
2022/05/14 06:52:23;;;;;;;2.75;2.45;;;14.80;1.40;;;16.47;100.00;95863.89;646661;216;31549;-76
2022/05/14 06:55:06;;;;;;;2.60;2.40;;;14.90;1.40;;;16.54;100.00;95864.24;646906;216;31659;-73
2022/05/14 06:57:48;;;;;;;3.20;2.53;;;15.00;1.40;;;16.58;100.00;95861.66;645896;216;31554;-73
2022/05/14 07:00:30;;;;;;;3.10;2.25;;;15.00;1.40;;;16.54;100.00;95865.72;619688;226;31899;-76
2022/05/14 07:08:46;;;;;;;3.37;2.77;;;15.10;1.40;;;16.63;100.00;95864.62;638036;216;32075;-74
2022/05/14 07:11:31;;;;;;;2.47;2.28;;;15.30;1.40;;;16.63;100.00;95872.13;646537;216;32203;-75
2022/05/14 07:14:12;;;;;;;2.50;2.30;;;15.30;1.40;;;16.47;100.00;95876.75;645326;216;31628;-74
2022/05/14 07:16:57;;;;;;;2.55;2.35;;;15.20;1.40;;;16.60;100.00;95871.75;647373;216;31595;-74
2022/05/14 07:19:39;;;;;;;2.70;2.50;;;15.50;1.40;;;16.96;100.00;95875.61;646925;215;31546;-73
2022/05/14 07:22:20;;;;;;;3.97;2.80;;;16.00;1.40;;;17.33;100.00;95874.17;646354;212;31578;-75
2022/05/14 07:25:02;;;;;;;3.00;2.70;;;16.30;1.40;;;17.56;100.00;95871.48;646992;216;32261;-74
2022/05/14 07:27:44;;;;;;;3.00;2.40;;;16.30;1.40;;;17.74;100.00;95865.85;648251;212;31569;-74
2022/05/14 07:30:25;;;;;;;2.65;2.40;;;16.40;1.40;;;17.84;100.00;95868.52;630929;220;31686;-74
2022/05/14 07:35:51;;;;;;;3.70;2.45;;;16.40;1.40;;;17.71;100.00;95863.39;620307;226;31933;-73
2022/05/14 07:38:33;;;;;;;3.92;2.40;;;16.40;1.40;;;17.80;100.00;95865.75;647065;216;32580;-74
2022/05/14 07:41:14;;;;;;;2.75;2.22;;;16.50;1.40;;;17.91;100.00;95864.50;646275;212;31781;-75
2022/05/14 07:43:56;;;;;;;2.90;2.12;;;16.70;1.40;;;17.83;100.00;95859.86;647421;212;31629;-73
2022/05/14 07:46:39;;;;;;;5.05;2.30;;;16.70;1.40;;;18.00;100.00;95861.38;646482;212;31569;-73
2022/05/14 07:49:21;;;;;;;1.70;1.60;;;16.80;1.40;;;18.00;100.00;95861.95;647682;212;32174;-73
2022/05/14 07:52:02;;;;;;;2.10;1.40;;;16.90;1.40;;;18.13;100.00;95862.09;647157;216;31565;-74
2022/05/14 07:54:49;;;;;;;2.10;1.48;;;17.00;1.40;;;18.44;100.00;95865.43;647905;216;32603;-75
2022/05/14 07:57:31;;;;;;;1.00;0.90;;;17.30;1.40;;;18.34;94.12;95866.22;646740;216;31486;-75
2022/05/14 08:00:14;;;;;;;2.00;0.80;;;17.20;1.40;;;18.48;100.00;95864.13;646259;216;31547;-73
2022/05/14 08:02:56;;;;;;;1.50;1.10;;;17.40;1.40;;;18.81;100.00;95867.88;647556;212;32138;-74
2022/05/14 08:05:37;;;;;;;1.10;1.00;;;17.50;1.40;;;18.83;96.13;95867.19;648946;212;31653;-73
2022/05/14 08:08:19;;;;;;;0.95;0.57;;;17.80;1.40;;;19.00;88.67;95866.92;640217;216;31719;-73
2022/05/14 08:11:01;;;;;;;2.30;1.10;;;17.90;1.40;;;19.23;93.71;95868.22;647033;216;31975;-75
2022/05/14 08:13:45;;;;;;;0.80;0.70;;;18.20;1.40;;;19.16;86.94;95867.28;647038;212;31485;-75
2022/05/14 08:19:01;;;;;;;0.80;0.70;;;17.90;1.40;;;18.89;85.19;95863.77;618739;226;31985;-73
2022/05/14 08:25:12;;;;;;;2.10;0.90;;;18.00;1.40;;;19.39;87.71;95864.53;646838;212;31555;-72
2022/05/14 08:27:54;;;;;;;1.13;0.73;;;18.30;1.40;;;19.63;86.76;95862.73;642312;218;31507;-74
2022/05/14 08:30:36;;;;;;;4.00;1.83;;;18.30;1.40;;;19.39;74.89;95863.98;645616;216;31602;-73
2022/05/14 08:35:52;;;;;;;1.10;0.70;;;18.40;1.40;;;19.54;77.64;95864.60;619769;226;31843;-74
2022/05/14 08:38:37;;;;;;;1.12;0.68;;;18.60;1.40;;;19.36;70.19;95866.20;619128;222;31829;-73
2022/05/14 08:41:18;;;;;;;1.00;0.70;;;18.40;1.40;;;19.32;65.06;95864.92;647336;212;31581;-74
2022/05/14 08:44:00;;;;;;;2.73;0.67;;;18.60;1.40;;;19.56;68.72;95863.78;647932;216;31496;-73
2022/05/14 08:46:42;;;;;;;1.50;0.65;;;18.80;1.40;;;19.86;71.26;95862.50;646445;212;32206;-72
2022/05/14 08:49:28;;;;;;;0.80;0.70;;;19.00;1.40;;;19.90;71.46;95857.33;648087;212;42168;-73
2022/05/14 08:52:10;;;;;;;0.80;0.68;;;19.10;1.40;;;20.00;72.88;95855.28;647803;216;31524;-73
2022/05/14 08:54:52;;;;;;;3.40;0.90;;;19.20;1.40;;;19.93;71.32;95856.97;646518;216;31929;-73
2022/05/14 08:57:56;;;;;;;1.93;1.00;;;19.10;1.40;;;19.95;68.57;95860.27;646930;216;31556;-74
2022/05/14 09:00:38;;;;;;;0.80;0.77;;;19.00;1.40;;;20.43;69.97;95851.65;647108;212;32610;-74
2022/05/14 09:03:23;;;;;;;1.00;0.90;;;19.50;1.40;;;20.72;67.38;95852.55;618782;226;31999;-73
2022/05/14 09:06:05;;;;;;;2.20;0.93;;;19.90;1.40;;;20.97;67.83;95849.11;647370;212;31475;-74
2022/05/14 09:08:46;;;;;;;1.60;0.95;;;20.00;1.40;;;21.08;66.07;95850.23;638566;212;31722;-74
2022/05/14 09:11:28;;;;;;;2.20;0.98;;;20.10;1.40;;;21.46;65.96;95850.27;646142;212;32050;-75
2022/05/14 09:14:33;;;;;;;0.82;0.82;;;20.60;1.40;;;23.16;66.83;95845.61;646567;212;31505;-74
2022/05/14 09:17:21;;;;;;;1.00;0.90;;;25.10;1.40;;;25.50;57.69;95839.17;646002;216;31692;-74
2022/05/14 09:20:03;;;;;;;1.73;1.00;;;28.20;1.40;;;26.26;54.14;95838.19;647152;216;31501;-73
2022/05/14 09:22:45;;;;;;;1.92;1.12;;;29.10;1.40;;;26.52;53.53;95837.23;647166;216;31881;-74
2022/05/14 09:25:36;;;;;;;2.20;1.20;;;28.10;1.40;;;26.14;52.88;95839.23;648110;216;32117;-73
2022/05/14 09:30:37;;;;;;;1.90;1.60;;;28.80;1.40;;;28.57;48.42;95836.05;648269;216;31544;-73
2022/05/14 09:35:57;;;;;;;1.65;1.30;;;28.10;1.40;;;29.18;48.36;95832.37;647305;216;31901;-74
2022/05/14 09:38:39;;;;;;;1.60;1.42;;;27.90;1.40;;;27.32;44.17;95833.71;647211;216;31703;-74
2022/05/14 09:41:24;;;;;;;1.42;1.30;;;26.20;1.40;;;27.54;47.02;95830.73;619566;222;42719;-73
2022/05/14 09:44:04;;;;;;;1.45;1.30;;;27.90;1.40;;;28.85;46.64;95829.56;618714;225;31832;-74
2022/05/14 09:46:45;;;;;;;2.92;1.05;;;27.10;1.40;;;28.46;43.75;95830.31;646787;216;31730;-74
2022/05/14 09:49:27;;;;;;;1.30;1.20;;;25.70;1.40;;;28.67;43.60;95829.08;645409;216;32031;-74
2022/05/14 09:52:13;;;;;;;2.60;1.50;;;27.50;1.40;;;31.50;43.82;95816.73;647620;216;43304;-73
2022/05/14 09:54:53;;;;;;;1.50;1.40;;;29.70;1.40;;;32.88;43.62;95820.33;646129;216;31657;-73
2022/05/14 09:57:47;;;;;;;1.10;1.00;;;30.20;1.40;;;32.73;41.05;95813.00;645626;216;31679;-76
2022/05/14 10:03:30;;;;;;;3.20;1.20;;;31.30;1.40;;;31.03;41.65;95819.92;647437;216;31609;-75
2022/05/14 10:06:25;;;;;;;2.35;1.40;;;29.20;1.40;;;33.27;39.55;95814.56;647408;216;42864;-75
2022/05/14 10:09:30;;;;;;;1.87;1.20;;;30.50;1.40;;;31.98;34.69;95817.37;618896;226;31869;-76
2022/05/14 10:12:25;;;;;;;2.10;1.17;;;27.90;1.40;;;29.57;37.84;95817.88;646277;216;31569;-73
2022/05/14 10:15:26;;;;;;;2.47;1.33;;;26.50;1.40;;;32.21;43.80;95812.50;646508;216;31636;-72
2022/05/14 10:18:22;;;;;;;1.67;1.20;;;29.40;1.40;;;33.98;37.87;95810.83;619470;226;32266;-76
2022/05/14 10:21:46;;;;;;;1.30;1.20;;;30.00;1.40;;;35.27;36.90;95805.88;645576;216;42182;-74
2022/05/14 10:27:41;;;;;;;1.30;1.20;;;31.00;1.40;;;32.47;34.59;95803.95;646727;212;31487;-76
2022/05/14 10:30:51;;;;;;;1.80;1.30;;;30.10;1.40;;;33.70;37.23;95798.20;646168;216;31549;-74
2022/05/14 10:35:58;;;;;;;1.40;1.30;;;29.10;1.40;;;34.53;35.11;95784.08;645787;216;31539;-74
2022/05/14 10:38:50;;;;;;;1.42;1.33;;;30.10;1.40;;;34.07;35.78;95781.50;647592;212;31504;-76
2022/05/14 10:41:39;;;;;;;1.40;1.27;;;30.60;1.40;;;35.32;32.78;95781.83;644328;212;32119;-73
2022/05/14 10:44:33;;;;;;;1.60;1.50;;;30.40;1.40;;;33.08;33.74;95794.81;619338;226;31984;-76
2022/05/14 10:47:20;;;;;;;1.40;1.17;;;29.10;1.40;;;35.26;35.09;95790.80;646585;216;31523;-74
2022/05/14 10:50:04;;;;;;;1.10;1.00;;;30.40;1.40;;;35.45;33.13;95783.58;645711;216;31781;-73
2022/05/14 10:52:47;;;;;;;2.00;1.70;;;30.00;1.40;;;34.13;35.00;95779.61;648187;216;31557;-73
2022/05/14 10:55:31;;;;;;;2.40;1.10;;;29.60;1.40;;;33.07;36.99;95790.84;646573;212;31559;-78
2022/05/14 10:58:21;;;;;;;1.12;1.02;;;29.70;1.40;;;33.98;36.13;95784.82;648064;216;31617;-74
2022/05/14 11:03:50;;;;;;;1.37;1.00;;;29.00;1.40;;;34.37;34.85;95774.03;647552;216;31666;-73
2022/05/14 11:06:33;;;;;;;3.10;1.10;;;29.10;1.40;;;35.68;34.80;95772.98;618188;226;31878;-76
2022/05/14 11:09:18;;;;;;;1.60;1.40;;;29.60;1.40;;;35.27;33.48;95775.22;637198;212;31755;-77
2022/05/14 11:12:00;;;;;;;1.40;1.30;;;29.30;1.40;;;34.98;31.09;95774.46;617306;226;32096;-75
2022/05/14 11:14:42;;;;;;;1.60;1.50;;;29.60;1.40;;;35.81;32.49;95774.51;632801;222;31655;-77
2022/05/14 11:17:34;;;;;;;1.50;1.40;;;29.10;1.40;;;33.67;34.68;95779.29;644514;212;31411;-73
2022/05/14 11:20:17;;;;;;;1.40;1.30;;;28.80;1.40;;;34.27;36.91;95772.52;649264;212;31545;-72
2022/05/14 11:23:07;;;;;;;2.25;1.70;;;29.00;1.40;;;35.89;35.82;95768.51;647496;216;31869;-73
2022/05/14 11:25:49;;;;;;;4.80;1.58;;;29.70;1.40;;;34.90;34.74;95767.14;644751;212;31617;-72
2022/05/14 11:28:31;;;;;;;3.07;1.40;;;28.60;1.40;;;36.12;32.33;95759.82;648697;216;31502;-73
2022/05/14 11:31:17;;;;;;;1.30;1.20;;;29.70;1.40;;;35.94;31.91;95756.50;648465;212;31536;-73
2022/05/14 11:35:51;;;;;;;1.60;1.20;;;30.40;1.40;;;35.19;33.58;95759.64;645738;216;31556;-74
2022/05/14 11:38:32;;;;;;;1.30;1.20;;;29.40;1.40;;;35.01;33.66;95752.26;616832;222;31982;-74
2022/05/14 11:41:14;;;;;;;1.40;1.30;;;30.00;1.40;;;36.72;30.78;95749.75;646230;216;31476;-75
2022/05/14 11:43:56;;;;;;;1.73;1.57;;;30.20;1.40;;;36.30;30.50;95754.45;645537;212;42672;-72
2022/05/14 11:46:44;;;;;;;1.23;1.10;;;29.70;1.40;;;36.59;29.27;95754.99;651397;216;31563;-76
2022/05/14 11:49:32;;;;;;;1.65;1.23;;;28.90;1.40;;;35.81;32.85;95752.17;646290;212;42206;-74
2022/05/14 11:52:15;;;;;;;2.70;1.27;;;28.30;1.40;;;36.62;29.92;95744.16;650747;216;32097;-75
2022/05/14 11:55:00;;;;;;;1.30;1.20;;;28.90;1.40;;;35.17;33.77;95744.59;646738;212;31575;-74
2022/05/14 11:57:53;;;;;;;1.90;1.00;;;28.90;1.40;;;36.94;31.01;95741.96;647496;216;31693;-74
2022/05/14 12:00:34;;;;;;;2.00;1.50;;;29.80;1.40;;;37.29;28.65;95743.13;648570;216;31579;-72
2022/05/14 12:03:29;;;;;;;1.65;1.40;;;29.10;1.40;;;36.45;29.90;95742.42;646661;216;31510;-74
2022/05/14 12:06:16;;;;;;;1.67;1.37;;;29.10;1.40;;;35.85;31.05;95743.93;652276;216;34806;-74
2022/05/14 12:09:04;;;;;;;2.80;1.30;;;28.80;1.40;;;34.69;30.40;95741.73;637298;216;31651;-74
2022/05/14 12:11:49;;;;;;;1.80;1.35;;;28.20;1.40;;;34.26;29.72;95744.39;651305;212;32168;-74
2022/05/14 12:14:31;;;;;;;2.40;1.40;;;28.50;1.40;;;34.67;29.15;95739.63;643268;218;31566;-74
2022/05/14 12:17:15;;;;;;;1.90;1.40;;;27.50;1.40;;;34.12;29.86;95737.97;644473;216;31529;-74
2022/05/14 12:19:56;;;;;;;1.30;1.17;;;26.20;1.40;;;33.83;32.37;95735.91;620476;226;32031;-74
2022/05/14 12:22:38;;;;;;;2.53;1.30;;;27.00;1.40;;;31.07;34.63;95740.13;650564;216;42204;-74
2022/05/14 12:25:19;;;;;;;1.30;1.17;;;25.80;1.40;;;33.49;32.29;95736.56;652548;216;31514;-74
2022/05/14 12:28:01;;;;;;;1.40;1.20;;;27.30;1.40;;;34.87;30.16;95725.59;643157;216;31620;-74
2022/05/14 12:35:56;;;;;;;2.40;1.15;;;28.00;1.40;;;34.75;33.75;95721.40;648495;216;31620;-74
2022/05/14 12:38:41;;;;;;;1.30;1.20;;;28.00;1.40;;;36.23;31.18;95716.02;639679;221;32013;-74
2022/05/14 12:41:41;;;;;;;3.10;1.10;;;29.00;1.40;;;33.26;33.06;95721.97;655471;216;31511;-74
2022/05/14 12:44:25;;;;;;;2.40;1.20;;;27.20;1.40;;;33.74;34.59;95713.94;648887;216;31677;-74